sensor_id;sensor_type;location;lat;lon;timestamp;P1;durP1;ratioP1;P2;durP2;ratioP2
49812;SDS011;35706;52.100;5.056;2024-03-07T00:00:23;50.17;;;26.33;;
49812;SDS011;35706;52.100;5.056;2024-03-07T00:01:23;50.40;;;26.25;;
49812;SDS011;35706;52.100;5.056;2024-03-07T00:02:26;45.75;;;24.90;;
49812;SDS011;35706;52.100;5.056;2024-03-07T00:03:28;50.60;;;26.70;;
49812;SDS011;35706;52.100;5.056;2024-03-07T00:04:28;52.38;;;25.60;;
49812;SDS011;35706;52.100;5.056;2024-03-07T00:05:35;49.45;;;25.30;;
49812;SDS011;35706;52.100;5.056;2024-03-07T00:06:35;52.05;;;26.70;;
49812;SDS011;35706;52.100;5.056;2024-03-07T00:07:36;51.10;;;27.02;;
49812;SDS011;35706;52.100;5.056;2024-03-07T00:08:37;51.70;;;26.27;;
49812;SDS011;35706;52.100;5.056;2024-03-07T00:09:37;53.42;;;27.40;;
49812;SDS011;35706;52.100;5.056;2024-03-07T00:10:37;54.45;;;27.42;;
49812;SDS011;35706;52.100;5.056;2024-03-07T00:11:38;50.38;;;27.50;;
49812;SDS011;35706;52.100;5.056;2024-03-07T00:12:39;52.45;;;26.40;;
49812;SDS011;35706;52.100;5.056;2024-03-07T00:13:43;48.88;;;26.00;;
49812;SDS011;35706;52.100;5.056;2024-03-07T00:14:43;48.40;;;26.00;;
49812;SDS011;35706;52.100;5.056;2024-03-07T00:15:44;54.83;;;27.77;;
49812;SDS011;35706;52.100;5.056;2024-03-07T00:16:44;50.00;;;26.60;;
49812;SDS011;35706;52.100;5.056;2024-03-07T00:17:44;54.08;;;27.08;;
49812;SDS011;35706;52.100;5.056;2024-03-07T00:18:45;55.92;;;27.23;;
49812;SDS011;35706;52.100;5.056;2024-03-07T00:19:45;56.10;;;27.15;;
49812;SDS011;35706;52.100;5.056;2024-03-07T00:20:47;49.88;;;25.67;;
49812;SDS011;35706;52.100;5.056;2024-03-07T00:21:48;48.20;;;27.05;;
49812;SDS011;35706;52.100;5.056;2024-03-07T00:22:48;49.97;;;26.52;;
49812;SDS011;35706;52.100;5.056;2024-03-07T00:24:08;52.63;;;26.90;;
49812;SDS011;35706;52.100;5.056;2024-03-07T00:25:20;51.95;;;26.63;;
49812;SDS011;35706;52.100;5.056;2024-03-07T00:26:22;46.40;;;25.58;;
49812;SDS011;35706;52.100;5.056;2024-03-07T00:27:22;52.33;;;26.95;;
49812;SDS011;35706;52.100;5.056;2024-03-07T00:28:23;50.50;;;26.00;;
49812;SDS011;35706;52.100;5.056;2024-03-07T00:29:23;50.20;;;26.63;;
49812;SDS011;35706;52.100;5.056;2024-03-07T00:30:24;51.20;;;26.00;;
49812;SDS011;35706;52.100;5.056;2024-03-07T00:31:25;50.67;;;26.00;;
49812;SDS011;35706;52.100;5.056;2024-03-07T00:32:25;49.92;;;26.27;;
49812;SDS011;35706;52.100;5.056;2024-03-07T00:33:29;56.95;;;28.50;;
49812;SDS011;35706;52.100;5.056;2024-03-07T00:34:29;52.83;;;27.33;;
49812;SDS011;35706;52.100;5.056;2024-03-07T00:35:30;57.67;;;27.40;;
49812;SDS011;35706;52.100;5.056;2024-03-07T00:36:30;54.35;;;27.85;;
49812;SDS011;35706;52.100;5.056;2024-03-07T00:37:30;57.53;;;28.13;;
49812;SDS011;35706;52.100;5.056;2024-03-07T00:38:31;50.58;;;26.52;;
49812;SDS011;35706;52.100;5.056;2024-03-07T00:39:31;51.15;;;27.13;;
49812;SDS011;35706;52.100;5.056;2024-03-07T00:40:33;31.92;;;16.10;;
49812;SDS011;35706;52.100;5.056;2024-03-07T00:41:34;57.10;;;26.50;;
49812;SDS011;35706;52.100;5.056;2024-03-07T00:42:34;57.00;;;27.85;;
49812;SDS011;35706;52.100;5.056;2024-03-07T00:43:35;55.22;;;28.45;;
49812;SDS011;35706;52.100;5.056;2024-03-07T00:44:36;51.38;;;27.10;;
49812;SDS011;35706;52.100;5.056;2024-03-07T00:45:36;54.67;;;26.88;;
49812;SDS011;35706;52.100;5.056;2024-03-07T00:46:37;54.92;;;27.98;;
49812;SDS011;35706;52.100;5.056;2024-03-07T00:47:37;52.33;;;26.52;;
49812;SDS011;35706;52.100;5.056;2024-03-07T00:48:38;56.85;;;26.95;;
49812;SDS011;35706;52.100;5.056;2024-03-07T00:49:38;53.38;;;28.27;;
49812;SDS011;35706;52.100;5.056;2024-03-07T00:50:38;58.22;;;28.30;;
49812;SDS011;35706;52.100;5.056;2024-03-07T00:51:39;56.08;;;28.70;;
49812;SDS011;35706;52.100;5.056;2024-03-07T00:52:40;56.05;;;27.45;;
49812;SDS011;35706;52.100;5.056;2024-03-07T00:53:40;58.15;;;28.65;;
49812;SDS011;35706;52.100;5.056;2024-03-07T00:54:41;56.03;;;28.85;;
49812;SDS011;35706;52.100;5.056;2024-03-07T00:55:41;62.50;;;29.98;;
49812;SDS011;35706;52.100;5.056;2024-03-07T00:57:00;52.47;;;27.58;;
49812;SDS011;35706;52.100;5.056;2024-03-07T00:58:00;52.60;;;28.13;;
49812;SDS011;35706;52.100;5.056;2024-03-07T00:59:00;57.50;;;28.77;;
49812;SDS011;35706;52.100;5.056;2024-03-07T01:00:05;58.33;;;27.35;;
49812;SDS011;35706;52.100;5.056;2024-03-07T01:01:11;57.15;;;28.48;;
49812;SDS011;35706;52.100;5.056;2024-03-07T01:02:12;53.92;;;28.23;;
49812;SDS011;35706;52.100;5.056;2024-03-07T01:03:12;55.55;;;27.17;;
49812;SDS011;35706;52.100;5.056;2024-03-07T01:04:14;56.20;;;28.30;;
49812;SDS011;35706;52.100;5.056;2024-03-07T01:05:14;59.65;;;28.33;;
49812;SDS011;35706;52.100;5.056;2024-03-07T01:06:14;55.05;;;29.30;;
49812;SDS011;35706;52.100;5.056;2024-03-07T01:07:15;61.05;;;28.17;;
49812;SDS011;35706;52.100;5.056;2024-03-07T01:08:15;54.88;;;27.85;;
49812;SDS011;35706;52.100;5.056;2024-03-07T01:09:15;58.28;;;28.00;;
49812;SDS011;35706;52.100;5.056;2024-03-07T01:10:17;57.75;;;27.13;;
49812;SDS011;35706;52.100;5.056;2024-03-07T01:11:17;58.03;;;27.73;;
49812;SDS011;35706;52.100;5.056;2024-03-07T01:12:18;55.83;;;27.80;;
49812;SDS011;35706;52.100;5.056;2024-03-07T01:13:22;53.40;;;27.25;;
49812;SDS011;35706;52.100;5.056;2024-03-07T01:14:24;60.83;;;29.48;;
49812;SDS011;35706;52.100;5.056;2024-03-07T01:15:24;51.03;;;27.60;;
49812;SDS011;35706;52.100;5.056;2024-03-07T01:16:24;54.85;;;27.65;;
49812;SDS011;35706;52.100;5.056;2024-03-07T01:17:26;58.95;;;29.17;;
49812;SDS011;35706;52.100;5.056;2024-03-07T01:18:26;51.53;;;28.45;;
49812;SDS011;35706;52.100;5.056;2024-03-07T01:19:26;56.20;;;28.35;;
49812;SDS011;35706;52.100;5.056;2024-03-07T01:20:27;58.38;;;27.73;;
49812;SDS011;35706;52.100;5.056;2024-03-07T01:21:27;56.83;;;28.13;;
49812;SDS011;35706;52.100;5.056;2024-03-07T01:22:27;55.72;;;27.67;;
49812;SDS011;35706;52.100;5.056;2024-03-07T01:23:28;58.78;;;28.02;;
49812;SDS011;35706;52.100;5.056;2024-03-07T01:24:29;57.65;;;27.70;;
49812;SDS011;35706;52.100;5.056;2024-03-07T01:25:29;62.15;;;28.73;;
49812;SDS011;35706;52.100;5.056;2024-03-07T01:26:33;54.90;;;27.40;;
49812;SDS011;35706;52.100;5.056;2024-03-07T01:27:34;55.80;;;27.42;;
49812;SDS011;35706;52.100;5.056;2024-03-07T01:28:34;57.13;;;27.48;;
49812;SDS011;35706;52.100;5.056;2024-03-07T01:29:35;56.17;;;28.15;;
49812;SDS011;35706;52.100;5.056;2024-03-07T01:30:35;54.70;;;27.45;;
49812;SDS011;35706;52.100;5.056;2024-03-07T01:31:35;56.25;;;27.90;;
49812;SDS011;35706;52.100;5.056;2024-03-07T01:32:36;55.13;;;27.95;;
49812;SDS011;35706;52.100;5.056;2024-03-07T01:33:36;53.53;;;27.92;;
49812;SDS011;35706;52.100;5.056;2024-03-07T01:34:36;54.03;;;28.08;;
49812;SDS011;35706;52.100;5.056;2024-03-07T01:35:37;57.20;;;29.17;;
49812;SDS011;35706;52.100;5.056;2024-03-07T01:36:37;59.70;;;28.40;;
49812;SDS011;35706;52.100;5.056;2024-03-07T01:37:37;58.65;;;28.23;;
49812;SDS011;35706;52.100;5.056;2024-03-07T01:38:38;56.45;;;27.38;;
49812;SDS011;35706;52.100;5.056;2024-03-07T01:39:38;60.63;;;29.58;;
49812;SDS011;35706;52.100;5.056;2024-03-07T01:40:41;56.00;;;28.10;;
49812;SDS011;35706;52.100;5.056;2024-03-07T01:41:43;65.20;;;28.73;;
49812;SDS011;35706;52.100;5.056;2024-03-07T01:42:43;58.30;;;28.67;;
49812;SDS011;35706;52.100;5.056;2024-03-07T01:43:48;53.65;;;28.27;;
49812;SDS011;35706;52.100;5.056;2024-03-07T01:44:48;58.28;;;28.77;;
49812;SDS011;35706;52.100;5.056;2024-03-07T01:45:48;52.10;;;27.45;;
49812;SDS011;35706;52.100;5.056;2024-03-07T01:46:53;57.08;;;27.90;;
49812;SDS011;35706;52.100;5.056;2024-03-07T01:47:54;56.40;;;28.98;;
49812;SDS011;35706;52.100;5.056;2024-03-07T01:48:55;58.20;;;29.08;;
49812;SDS011;35706;52.100;5.056;2024-03-07T01:49:56;51.95;;;27.15;;
49812;SDS011;35706;52.100;5.056;2024-03-07T01:50:56;68.03;;;29.95;;
49812;SDS011;35706;52.100;5.056;2024-03-07T01:51:58;53.13;;;27.27;;
49812;SDS011;35706;52.100;5.056;2024-03-07T01:52:59;57.47;;;28.98;;
49812;SDS011;35706;52.100;5.056;2024-03-07T01:54:00;57.17;;;29.15;;
49812;SDS011;35706;52.100;5.056;2024-03-07T01:55:02;53.97;;;27.30;;
49812;SDS011;35706;52.100;5.056;2024-03-07T01:56:03;61.78;;;29.23;;
49812;SDS011;35706;52.100;5.056;2024-03-07T01:57:04;54.35;;;28.83;;
49812;SDS011;35706;52.100;5.056;2024-03-07T01:58:05;58.40;;;28.88;;
49812;SDS011;35706;52.100;5.056;2024-03-07T01:59:08;55.35;;;27.83;;
49812;SDS011;35706;52.100;5.056;2024-03-07T02:00:09;59.58;;;29.45;;
49812;SDS011;35706;52.100;5.056;2024-03-07T02:01:10;59.72;;;30.35;;
49812;SDS011;35706;52.100;5.056;2024-03-07T02:02:14;59.30;;;29.92;;
49812;SDS011;35706;52.100;5.056;2024-03-07T02:03:14;58.25;;;28.55;;
49812;SDS011;35706;52.100;5.056;2024-03-07T02:04:15;63.47;;;30.20;;
49812;SDS011;35706;52.100;5.056;2024-03-07T02:05:15;57.28;;;27.83;;
49812;SDS011;35706;52.100;5.056;2024-03-07T02:06:15;63.90;;;29.25;;
49812;SDS011;35706;52.100;5.056;2024-03-07T02:07:16;59.92;;;29.15;;
49812;SDS011;35706;52.100;5.056;2024-03-07T02:08:16;62.22;;;30.52;;
49812;SDS011;35706;52.100;5.056;2024-03-07T02:09:16;59.42;;;30.30;;
49812;SDS011;35706;52.100;5.056;2024-03-07T02:10:17;62.78;;;29.10;;
49812;SDS011;35706;52.100;5.056;2024-03-07T02:11:18;57.15;;;29.20;;
49812;SDS011;35706;52.100;5.056;2024-03-07T02:12:18;58.40;;;28.73;;
49812;SDS011;35706;52.100;5.056;2024-03-07T02:13:18;56.80;;;28.98;;
49812;SDS011;35706;52.100;5.056;2024-03-07T02:14:19;64.00;;;30.45;;
49812;SDS011;35706;52.100;5.056;2024-03-07T02:15:19;64.43;;;30.35;;
49812;SDS011;35706;52.100;5.056;2024-03-07T02:16:19;61.53;;;29.73;;
49812;SDS011;35706;52.100;5.056;2024-03-07T02:17:20;60.22;;;29.02;;
49812;SDS011;35706;52.100;5.056;2024-03-07T02:18:20;61.35;;;30.30;;
49812;SDS011;35706;52.100;5.056;2024-03-07T02:19:21;60.85;;;28.92;;
49812;SDS011;35706;52.100;5.056;2024-03-07T02:20:21;61.80;;;29.85;;
49812;SDS011;35706;52.100;5.056;2024-03-07T02:21:22;57.95;;;29.38;;
49812;SDS011;35706;52.100;5.056;2024-03-07T02:22:23;61.67;;;30.05;;
49812;SDS011;35706;52.100;5.056;2024-03-07T02:23:26;59.35;;;28.73;;
49812;SDS011;35706;52.100;5.056;2024-03-07T02:24:27;62.08;;;29.20;;
49812;SDS011;35706;52.100;5.056;2024-03-07T02:25:28;59.00;;;29.67;;
49812;SDS011;35706;52.100;5.056;2024-03-07T02:26:28;57.03;;;29.15;;
49812;SDS011;35706;52.100;5.056;2024-03-07T02:27:28;53.65;;;29.02;;
49812;SDS011;35706;52.100;5.056;2024-03-07T02:28:29;60.00;;;28.95;;
49812;SDS011;35706;52.100;5.056;2024-03-07T02:29:30;58.63;;;29.15;;
49812;SDS011;35706;52.100;5.056;2024-03-07T02:30:31;58.70;;;29.02;;
49812;SDS011;35706;52.100;5.056;2024-03-07T02:31:34;59.33;;;28.42;;
49812;SDS011;35706;52.100;5.056;2024-03-07T02:32:36;58.30;;;28.63;;
49812;SDS011;35706;52.100;5.056;2024-03-07T02:33:37;59.70;;;28.95;;
49812;SDS011;35706;52.100;5.056;2024-03-07T02:34:37;61.45;;;30.33;;
49812;SDS011;35706;52.100;5.056;2024-03-07T02:35:38;64.13;;;29.77;;
49812;SDS011;35706;52.100;5.056;2024-03-07T02:36:38;58.72;;;28.83;;
49812;SDS011;35706;52.100;5.056;2024-03-07T02:37:38;63.38;;;30.63;;
49812;SDS011;35706;52.100;5.056;2024-03-07T02:38:39;59.92;;;28.85;;
49812;SDS011;35706;52.100;5.056;2024-03-07T02:39:39;61.35;;;30.20;;
49812;SDS011;35706;52.100;5.056;2024-03-07T02:40:39;64.18;;;30.48;;
49812;SDS011;35706;52.100;5.056;2024-03-07T02:41:40;63.28;;;30.27;;
49812;SDS011;35706;52.100;5.056;2024-03-07T02:42:40;64.18;;;31.10;;
49812;SDS011;35706;52.100;5.056;2024-03-07T02:43:40;64.60;;;30.25;;
49812;SDS011;35706;52.100;5.056;2024-03-07T02:44:41;57.95;;;28.17;;
49812;SDS011;35706;52.100;5.056;2024-03-07T02:45:41;61.95;;;28.92;;
49812;SDS011;35706;52.100;5.056;2024-03-07T02:46:42;61.85;;;30.05;;
49812;SDS011;35706;52.100;5.056;2024-03-07T02:47:42;57.30;;;29.17;;
49812;SDS011;35706;52.100;5.056;2024-03-07T02:48:44;63.20;;;30.10;;
49812;SDS011;35706;52.100;5.056;2024-03-07T02:49:44;64.47;;;29.42;;
49812;SDS011;35706;52.100;5.056;2024-03-07T02:50:44;69.60;;;30.23;;
49812;SDS011;35706;52.100;5.056;2024-03-07T02:51:45;62.70;;;30.20;;
49812;SDS011;35706;52.100;5.056;2024-03-07T02:52:46;58.67;;;29.40;;
49812;SDS011;35706;52.100;5.056;2024-03-07T02:53:46;66.00;;;31.20;;
49812;SDS011;35706;52.100;5.056;2024-03-07T02:54:46;61.92;;;29.85;;
49812;SDS011;35706;52.100;5.056;2024-03-07T02:55:47;62.40;;;30.50;;
49812;SDS011;35706;52.100;5.056;2024-03-07T02:56:47;64.07;;;30.20;;
49812;SDS011;35706;52.100;5.056;2024-03-07T02:57:47;63.63;;;29.55;;
49812;SDS011;35706;52.100;5.056;2024-03-07T02:58:48;55.15;;;27.70;;
49812;SDS011;35706;52.100;5.056;2024-03-07T02:59:48;62.58;;;30.40;;
49812;SDS011;35706;52.100;5.056;2024-03-07T03:00:48;67.25;;;30.42;;
49812;SDS011;35706;52.100;5.056;2024-03-07T03:01:49;65.43;;;30.60;;
49812;SDS011;35706;52.100;5.056;2024-03-07T03:02:49;62.17;;;31.00;;
49812;SDS011;35706;52.100;5.056;2024-03-07T03:03:50;64.32;;;30.58;;
49812;SDS011;35706;52.100;5.056;2024-03-07T03:04:50;60.25;;;28.73;;
49812;SDS011;35706;52.100;5.056;2024-03-07T03:05:50;62.88;;;29.85;;
49812;SDS011;35706;52.100;5.056;2024-03-07T03:06:51;60.92;;;28.90;;
49812;SDS011;35706;52.100;5.056;2024-03-07T03:07:51;63.60;;;29.75;;
49812;SDS011;35706;52.100;5.056;2024-03-07T03:08:54;64.65;;;30.65;;
49812;SDS011;35706;52.100;5.056;2024-03-07T03:09:55;62.97;;;29.73;;
49812;SDS011;35706;52.100;5.056;2024-03-07T03:10:55;65.00;;;29.70;;
49812;SDS011;35706;52.100;5.056;2024-03-07T03:11:56;61.00;;;29.13;;
49812;SDS011;35706;52.100;5.056;2024-03-07T03:12:57;59.05;;;29.48;;
49812;SDS011;35706;52.100;5.056;2024-03-07T03:13:59;59.97;;;29.23;;
49812;SDS011;35706;52.100;5.056;2024-03-07T03:14:59;58.05;;;28.27;;
49812;SDS011;35706;52.100;5.056;2024-03-07T03:15:59;60.00;;;28.45;;
49812;SDS011;35706;52.100;5.056;2024-03-07T03:17:00;61.45;;;29.58;;
49812;SDS011;35706;52.100;5.056;2024-03-07T03:18:00;63.60;;;30.70;;
49812;SDS011;35706;52.100;5.056;2024-03-07T03:19:01;61.42;;;28.77;;
49812;SDS011;35706;52.100;5.056;2024-03-07T03:20:01;63.55;;;30.85;;
49812;SDS011;35706;52.100;5.056;2024-03-07T03:21:02;57.67;;;28.52;;
49812;SDS011;35706;52.100;5.056;2024-03-07T03:22:02;55.80;;;28.45;;
49812;SDS011;35706;52.100;5.056;2024-03-07T03:23:03;56.67;;;28.20;;
49812;SDS011;35706;52.100;5.056;2024-03-07T03:24:04;57.65;;;28.50;;
49812;SDS011;35706;52.100;5.056;2024-03-07T03:25:04;62.65;;;30.13;;
49812;SDS011;35706;52.100;5.056;2024-03-07T03:26:07;62.33;;;29.48;;
49812;SDS011;35706;52.100;5.056;2024-03-07T03:27:07;58.47;;;28.95;;
49812;SDS011;35706;52.100;5.056;2024-03-07T03:28:08;59.72;;;30.13;;
49812;SDS011;35706;52.100;5.056;2024-03-07T03:29:11;66.80;;;31.02;;
49812;SDS011;35706;52.100;5.056;2024-03-07T03:30:13;62.42;;;29.17;;
49812;SDS011;35706;52.100;5.056;2024-03-07T03:31:14;58.85;;;28.63;;
49812;SDS011;35706;52.100;5.056;2024-03-07T03:32:14;65.38;;;31.05;;
49812;SDS011;35706;52.100;5.056;2024-03-07T03:33:15;61.10;;;29.13;;
49812;SDS011;35706;52.100;5.056;2024-03-07T03:34:15;63.47;;;29.73;;
49812;SDS011;35706;52.100;5.056;2024-03-07T03:35:16;60.70;;;29.48;;
49812;SDS011;35706;52.100;5.056;2024-03-07T03:36:17;58.58;;;29.48;;
49812;SDS011;35706;52.100;5.056;2024-03-07T03:37:19;60.15;;;28.20;;
49812;SDS011;35706;52.100;5.056;2024-03-07T03:38:20;60.65;;;30.00;;
49812;SDS011;35706;52.100;5.056;2024-03-07T03:39:21;64.68;;;31.30;;
49812;SDS011;35706;52.100;5.056;2024-03-07T03:40:21;65.53;;;30.73;;
49812;SDS011;35706;52.100;5.056;2024-03-07T03:41:22;63.60;;;29.85;;
49812;SDS011;35706;52.100;5.056;2024-03-07T03:42:23;60.08;;;29.85;;
49812;SDS011;35706;52.100;5.056;2024-03-07T03:43:23;60.38;;;30.10;;
49812;SDS011;35706;52.100;5.056;2024-03-07T03:44:23;61.22;;;30.42;;
49812;SDS011;35706;52.100;5.056;2024-03-07T03:45:23;64.90;;;30.20;;
49812;SDS011;35706;52.100;5.056;2024-03-07T03:46:25;62.33;;;29.88;;
49812;SDS011;35706;52.100;5.056;2024-03-07T03:47:25;60.03;;;30.40;;
49812;SDS011;35706;52.100;5.056;2024-03-07T03:48:28;64.45;;;31.08;;
49812;SDS011;35706;52.100;5.056;2024-03-07T03:49:28;67.95;;;31.45;;
49812;SDS011;35706;52.100;5.056;2024-03-07T03:50:28;58.75;;;29.38;;
49812;SDS011;35706;52.100;5.056;2024-03-07T03:51:29;64.63;;;30.65;;
49812;SDS011;35706;52.100;5.056;2024-03-07T03:52:30;58.53;;;29.35;;
49812;SDS011;35706;52.100;5.056;2024-03-07T03:53:30;63.53;;;31.25;;
49812;SDS011;35706;52.100;5.056;2024-03-07T03:54:31;67.60;;;30.95;;
49812;SDS011;35706;52.100;5.056;2024-03-07T03:55:31;61.60;;;30.50;;
49812;SDS011;35706;52.100;5.056;2024-03-07T03:56:32;61.55;;;28.75;;
49812;SDS011;35706;52.100;5.056;2024-03-07T03:57:33;62.20;;;29.80;;
49812;SDS011;35706;52.100;5.056;2024-03-07T03:58:33;59.63;;;29.65;;
49812;SDS011;35706;52.100;5.056;2024-03-07T03:59:34;65.30;;;29.50;;
49812;SDS011;35706;52.100;5.056;2024-03-07T04:00:34;66.70;;;30.00;;
49812;SDS011;35706;52.100;5.056;2024-03-07T04:01:35;63.92;;;30.73;;
49812;SDS011;35706;52.100;5.056;2024-03-07T04:02:35;66.55;;;31.17;;
49812;SDS011;35706;52.100;5.056;2024-03-07T04:03:39;62.47;;;29.00;;
49812;SDS011;35706;52.100;5.056;2024-03-07T04:04:39;66.47;;;32.00;;
49812;SDS011;35706;52.100;5.056;2024-03-07T04:05:40;63.80;;;30.83;;
49812;SDS011;35706;52.100;5.056;2024-03-07T04:06:41;58.67;;;29.30;;
49812;SDS011;35706;52.100;5.056;2024-03-07T04:07:41;66.45;;;30.55;;
49812;SDS011;35706;52.100;5.056;2024-03-07T04:08:42;64.40;;;31.40;;
49812;SDS011;35706;52.100;5.056;2024-03-07T04:09:42;65.43;;;32.00;;
49812;SDS011;35706;52.100;5.056;2024-03-07T04:10:43;68.93;;;31.88;;
49812;SDS011;35706;52.100;5.056;2024-03-07T04:11:44;66.25;;;31.15;;
49812;SDS011;35706;52.100;5.056;2024-03-07T04:12:45;66.28;;;30.90;;
49812;SDS011;35706;52.100;5.056;2024-03-07T04:13:46;59.55;;;29.15;;
49812;SDS011;35706;52.100;5.056;2024-03-07T04:14:46;59.85;;;30.23;;
49812;SDS011;35706;52.100;5.056;2024-03-07T04:15:46;62.90;;;30.50;;
49812;SDS011;35706;52.100;5.056;2024-03-07T04:16:47;58.50;;;30.33;;
49812;SDS011;35706;52.100;5.056;2024-03-07T04:17:47;63.28;;;30.08;;
49812;SDS011;35706;52.100;5.056;2024-03-07T04:18:47;61.10;;;29.60;;
49812;SDS011;35706;52.100;5.056;2024-03-07T04:19:48;70.82;;;30.38;;
49812;SDS011;35706;52.100;5.056;2024-03-07T04:20:48;64.10;;;31.20;;
49812;SDS011;35706;52.100;5.056;2024-03-07T04:21:49;66.43;;;29.80;;
49812;SDS011;35706;52.100;5.056;2024-03-07T04:22:49;69.22;;;30.35;;
49812;SDS011;35706;52.100;5.056;2024-03-07T04:23:50;61.22;;;30.05;;
49812;SDS011;35706;52.100;5.056;2024-03-07T04:24:51;63.40;;;29.88;;
49812;SDS011;35706;52.100;5.056;2024-03-07T04:25:55;61.83;;;30.55;;
49812;SDS011;35706;52.100;5.056;2024-03-07T04:26:56;59.08;;;29.17;;
49812;SDS011;35706;52.100;5.056;2024-03-07T04:27:56;60.17;;;30.08;;
49812;SDS011;35706;52.100;5.056;2024-03-07T04:28:58;61.45;;;28.35;;
49812;SDS011;35706;52.100;5.056;2024-03-07T04:29:58;64.40;;;30.25;;
49812;SDS011;35706;52.100;5.056;2024-03-07T04:30:59;58.47;;;29.83;;
49812;SDS011;35706;52.100;5.056;2024-03-07T04:31:59;65.03;;;29.75;;
49812;SDS011;35706;52.100;5.056;2024-03-07T04:33:01;68.88;;;30.67;;
49812;SDS011;35706;52.100;5.056;2024-03-07T04:34:01;64.25;;;30.25;;
49812;SDS011;35706;52.100;5.056;2024-03-07T04:35:01;64.47;;;30.77;;
49812;SDS011;35706;52.100;5.056;2024-03-07T04:36:07;62.03;;;30.42;;
49812;SDS011;35706;52.100;5.056;2024-03-07T04:37:08;62.10;;;29.60;;
49812;SDS011;35706;52.100;5.056;2024-03-07T04:38:09;67.03;;;30.60;;
49812;SDS011;35706;52.100;5.056;2024-03-07T04:39:11;62.17;;;30.65;;
49812;SDS011;35706;52.100;5.056;2024-03-07T04:40:22;60.63;;;30.02;;
49812;SDS011;35706;52.100;5.056;2024-03-07T04:41:22;62.53;;;28.00;;
49812;SDS011;35706;52.100;5.056;2024-03-07T04:42:23;60.85;;;28.30;;
49812;SDS011;35706;52.100;5.056;2024-03-07T04:43:23;59.55;;;30.45;;
49812;SDS011;35706;52.100;5.056;2024-03-07T04:44:26;63.97;;;30.48;;
49812;SDS011;35706;52.100;5.056;2024-03-07T04:45:30;58.47;;;30.17;;
49812;SDS011;35706;52.100;5.056;2024-03-07T04:46:31;64.40;;;30.40;;
49812;SDS011;35706;52.100;5.056;2024-03-07T04:47:31;63.67;;;30.88;;
49812;SDS011;35706;52.100;5.056;2024-03-07T04:48:32;68.97;;;30.48;;
49812;SDS011;35706;52.100;5.056;2024-03-07T04:49:32;64.38;;;31.65;;
49812;SDS011;35706;52.100;5.056;2024-03-07T04:50:33;63.55;;;30.10;;
49812;SDS011;35706;52.100;5.056;2024-03-07T04:51:34;67.80;;;31.00;;
49812;SDS011;35706;52.100;5.056;2024-03-07T04:52:34;67.25;;;30.80;;
49812;SDS011;35706;52.100;5.056;2024-03-07T04:53:35;61.20;;;29.70;;
49812;SDS011;35706;52.100;5.056;2024-03-07T04:54:38;67.82;;;30.85;;
49812;SDS011;35706;52.100;5.056;2024-03-07T04:55:39;67.78;;;31.30;;
49812;SDS011;35706;52.100;5.056;2024-03-07T04:56:39;63.63;;;29.17;;
49812;SDS011;35706;52.100;5.056;2024-03-07T04:57:39;64.35;;;30.48;;
49812;SDS011;35706;52.100;5.056;2024-03-07T04:58:41;62.28;;;30.15;;
49812;SDS011;35706;52.100;5.056;2024-03-07T04:59:41;67.35;;;32.72;;
49812;SDS011;35706;52.100;5.056;2024-03-07T05:00:42;65.70;;;30.48;;
49812;SDS011;35706;52.100;5.056;2024-03-07T05:01:42;64.32;;;29.58;;
49812;SDS011;35706;52.100;5.056;2024-03-07T05:02:44;62.88;;;29.58;;
49812;SDS011;35706;52.100;5.056;2024-03-07T05:03:45;60.33;;;28.85;;
49812;SDS011;35706;52.100;5.056;2024-03-07T05:04:46;63.13;;;29.67;;
49812;SDS011;35706;52.100;5.056;2024-03-07T05:05:49;60.45;;;29.33;;
49812;SDS011;35706;52.100;5.056;2024-03-07T05:06:49;58.55;;;29.50;;
49812;SDS011;35706;52.100;5.056;2024-03-07T05:07:50;64.93;;;30.13;;
49812;SDS011;35706;52.100;5.056;2024-03-07T05:08:53;61.30;;;30.63;;
49812;SDS011;35706;52.100;5.056;2024-03-07T05:09:53;58.50;;;29.65;;
49812;SDS011;35706;52.100;5.056;2024-03-07T05:10:54;67.68;;;29.30;;
49812;SDS011;35706;52.100;5.056;2024-03-07T05:11:54;63.30;;;29.02;;
49812;SDS011;35706;52.100;5.056;2024-03-07T05:12:55;60.15;;;30.23;;
49812;SDS011;35706;52.100;5.056;2024-03-07T05:13:58;68.40;;;31.25;;
49812;SDS011;35706;52.100;5.056;2024-03-07T05:15:00;66.43;;;29.85;;
49812;SDS011;35706;52.100;5.056;2024-03-07T05:16:00;66.72;;;31.48;;
49812;SDS011;35706;52.100;5.056;2024-03-07T05:17:01;66.80;;;30.92;;
49812;SDS011;35706;52.100;5.056;2024-03-07T05:18:08;61.80;;;29.52;;
49812;SDS011;35706;52.100;5.056;2024-03-07T05:19:08;59.97;;;29.42;;
49812;SDS011;35706;52.100;5.056;2024-03-07T05:20:09;66.60;;;29.38;;
49812;SDS011;35706;52.100;5.056;2024-03-07T05:21:12;65.43;;;32.03;;
49812;SDS011;35706;52.100;5.056;2024-03-07T05:22:31;60.47;;;30.23;;
49812;SDS011;35706;52.100;5.056;2024-03-07T05:23:32;65.43;;;29.67;;
49812;SDS011;35706;52.100;5.056;2024-03-07T05:24:32;68.38;;;31.08;;
49812;SDS011;35706;52.100;5.056;2024-03-07T05:25:34;67.63;;;30.58;;
49812;SDS011;35706;52.100;5.056;2024-03-07T05:26:34;65.25;;;31.63;;
49812;SDS011;35706;52.100;5.056;2024-03-07T05:27:40;62.95;;;30.90;;
49812;SDS011;35706;52.100;5.056;2024-03-07T05:28:40;66.32;;;31.80;;
49812;SDS011;35706;52.100;5.056;2024-03-07T05:29:41;60.55;;;29.30;;
49812;SDS011;35706;52.100;5.056;2024-03-07T05:30:42;63.45;;;31.35;;
49812;SDS011;35706;52.100;5.056;2024-03-07T05:31:42;66.55;;;31.15;;
49812;SDS011;35706;52.100;5.056;2024-03-07T05:32:48;66.30;;;30.85;;
49812;SDS011;35706;52.100;5.056;2024-03-07T05:33:49;62.58;;;30.92;;
49812;SDS011;35706;52.100;5.056;2024-03-07T05:34:50;65.03;;;29.73;;
49812;SDS011;35706;52.100;5.056;2024-03-07T05:35:50;71.65;;;32.35;;
49812;SDS011;35706;52.100;5.056;2024-03-07T05:37:02;66.90;;;31.40;;
49812;SDS011;35706;52.100;5.056;2024-03-07T05:38:02;67.15;;;30.90;;
49812;SDS011;35706;52.100;5.056;2024-03-07T05:39:04;67.55;;;30.23;;
49812;SDS011;35706;52.100;5.056;2024-03-07T05:40:11;61.72;;;31.33;;
49812;SDS011;35706;52.100;5.056;2024-03-07T05:41:11;58.50;;;29.35;;
49812;SDS011;35706;52.100;5.056;2024-03-07T05:42:14;62.28;;;30.90;;
49812;SDS011;35706;52.100;5.056;2024-03-07T05:43:14;72.75;;;33.22;;
49812;SDS011;35706;52.100;5.056;2024-03-07T05:44:15;66.55;;;30.00;;
49812;SDS011;35706;52.100;5.056;2024-03-07T05:45:15;66.43;;;30.83;;
49812;SDS011;35706;52.100;5.056;2024-03-07T05:46:18;68.90;;;32.13;;
49812;SDS011;35706;52.100;5.056;2024-03-07T05:47:18;66.47;;;29.67;;
49812;SDS011;35706;52.100;5.056;2024-03-07T05:48:19;64.82;;;30.02;;
49812;SDS011;35706;52.100;5.056;2024-03-07T05:49:19;59.47;;;29.27;;
49812;SDS011;35706;52.100;5.056;2024-03-07T05:50:21;62.85;;;30.23;;
49812;SDS011;35706;52.100;5.056;2024-03-07T05:51:22;66.70;;;31.00;;
49812;SDS011;35706;52.100;5.056;2024-03-07T05:52:23;67.75;;;32.17;;
49812;SDS011;35706;52.100;5.056;2024-03-07T05:53:23;61.58;;;28.65;;
49812;SDS011;35706;52.100;5.056;2024-03-07T05:54:24;63.22;;;30.48;;
49812;SDS011;35706;52.100;5.056;2024-03-07T05:55:24;65.50;;;30.02;;
49812;SDS011;35706;52.100;5.056;2024-03-07T05:56:25;60.25;;;30.10;;
49812;SDS011;35706;52.100;5.056;2024-03-07T05:57:25;62.55;;;31.05;;